createdAt,value
2022-11-05T00:00:19.839Z,96252.72
2022-11-05T00:03:04.942Z,96253.53
2022-11-05T00:05:51.652Z,96261.31
2022-11-05T00:08:36.834Z,96276.69
2022-11-05T00:11:03.324Z,96271.31
2022-11-05T00:13:48.521Z,96274.09
2022-11-05T00:16:33.942Z,96305.31
2022-11-05T00:19:06.777Z,96291.06
2022-11-05T00:21:52.217Z,96293.81
2022-11-05T00:24:37.658Z,96325.84
2022-11-05T00:27:04.255Z,96324.75
2022-11-05T00:29:30.813Z,96334.81
2022-11-05T00:31:57.262Z,96345.19
2022-11-05T00:34:23.757Z,96353.38
2022-11-05T00:36:50.318Z,96364.97
2022-11-05T00:39:16.896Z,96372.25
2022-11-05T00:41:43.646Z,96365.72
2022-11-05T00:44:28.583Z,96375.06
2022-11-05T00:47:15.026Z,96410.56
2022-11-05T00:49:41.601Z,96416.78
2022-11-05T00:52:27.139Z,96426.53
2022-11-05T00:54:53.602Z,96460.84
2022-11-05T00:57:20.121Z,96447.78
2022-11-05T00:59:46.626Z,96474.84
2022-11-05T01:02:13.295Z,96502.19
2022-11-05T01:04:39.865Z,96494.94
2022-11-05T01:07:09.822Z,96507.34
2022-11-05T01:09:36.279Z,96525.84
2022-11-05T01:12:04.658Z,96530.56
2022-11-05T01:14:31.506Z,96540.97
2022-11-05T01:16:57.994Z,96554.88
2022-11-05T01:19:24.609Z,96551.44
2022-11-05T01:21:51.029Z,96558.06
2022-11-05T01:24:17.418Z,96582.31
2022-11-05T01:26:44.012Z,96586.22
2022-11-05T01:29:11.094Z,96581.69
2022-11-05T01:31:37.606Z,96610.22
2022-11-05T01:34:04.131Z,96615.59
2022-11-05T01:36:30.616Z,96620.34
2022-11-05T01:38:57.209Z,96636.53
2022-11-05T01:41:23.827Z,96642.25
2022-11-05T01:43:52.333Z,96633.47
2022-11-05T01:46:39.921Z,96624.13
2022-11-05T01:49:18.671Z,96642.56
2022-11-05T01:51:45.809Z,96631.50
2022-11-05T01:54:14.587Z,96642.25
2022-11-05T01:56:43.982Z,96635.63
2022-11-05T01:59:12.586Z,96627.28
2022-11-05T02:01:39.382Z,96643.03
2022-11-05T02:04:10.344Z,96642.56
2022-11-05T02:06:39.278Z,96632.66
2022-11-05T02:09:13.312Z,96648.81
2022-11-05T02:11:42.273Z,96653.41
2022-11-05T02:14:08.734Z,96653.56
2022-11-05T02:16:48.001Z,96665.84
2022-11-05T02:19:14.608Z,96665.78
2022-11-05T02:21:48.157Z,96652.38
2022-11-05T02:24:26.565Z,96658.81
2022-11-05T02:27:02.613Z,96647.16
2022-11-05T02:29:29.139Z,96623.66
2022-11-05T02:32:15.345Z,96612.31
2022-11-05T02:35:05.591Z,96578.25
2022-11-05T02:37:38.070Z,96544.28
2022-11-05T02:40:05.120Z,96515.13
2022-11-05T02:42:40.286Z,96494.69
2022-11-05T02:45:24.929Z,96446.41
2022-11-05T02:47:57.196Z,96412.25
2022-11-05T02:50:27.018Z,96372.84
2022-11-05T02:52:59.395Z,96343.94
2022-11-05T02:55:32.892Z,96326.81
2022-11-05T02:58:02.720Z,96296.69
2022-11-05T03:00:44.279Z,96280.88
2022-11-05T03:03:22.606Z,96269.56
2022-11-05T03:05:52.470Z,96240.97
2022-11-05T03:08:27.943Z,96221.28
2022-11-05T03:11:14.661Z,96207.69
2022-11-05T03:13:41.148Z,96182.59
2022-11-05T03:16:13.317Z,96155.94
2022-11-05T03:18:45.422Z,96138.88
2022-11-05T03:21:11.851Z,96113.34
2022-11-05T03:23:58.610Z,96070.88
2022-11-05T03:26:38.289Z,96049.94
2022-11-05T03:29:16.449Z,96037.19
2022-11-05T03:31:45.691Z,96012.91
2022-11-05T03:34:13.070Z,95989.66
2022-11-05T03:36:41.861Z,95969.56
2022-11-05T03:39:10.910Z,95948.75
2022-11-05T03:41:41.474Z,95944.84
2022-11-05T03:44:09.207Z,95928.25
2022-11-05T03:46:38.919Z,95913.56
2022-11-05T03:49:08.578Z,95908.50
2022-11-05T03:51:53.726Z,95896.94
2022-11-05T03:54:20.342Z,95890.72
2022-11-05T03:56:52.338Z,95885.34
2022-11-05T03:59:20.176Z,95876.06
2022-11-05T04:01:48.049Z,95876.03
2022-11-05T04:04:14.621Z,95869.88
2022-11-05T04:07:01.270Z,95851.34
2022-11-05T04:09:48.503Z,95853.25
2022-11-05T04:12:33.598Z,95854.41
2022-11-05T04:15:00.151Z,95833.97
2022-11-05T04:17:26.560Z,95841.66
2022-11-05T04:20:11.661Z,95837.41
2022-11-05T04:22:56.899Z,95832.81
2022-11-05T04:25:23.390Z,95841.28
2022-11-05T04:27:50.058Z,95846.69
2022-11-05T04:30:20.909Z,95838.22
2022-11-05T04:32:59.724Z,95849.00
2022-11-05T04:35:27.133Z,95856.34
2022-11-05T04:37:53.931Z,95835.88
2022-11-05T04:40:20.502Z,95838.19
2022-11-05T04:42:46.971Z,95851.72
2022-11-05T04:45:13.412Z,95851.31
2022-11-05T04:47:39.883Z,95842.44
2022-11-05T04:50:06.699Z,95842.84
2022-11-05T04:52:33.181Z,95840.50
2022-11-05T04:54:59.636Z,95831.25
2022-11-05T04:57:26.145Z,95838.94
2022-11-05T04:59:53.927Z,95842.84
2022-11-05T05:02:20.630Z,95838.97
2022-11-05T05:04:47.134Z,95841.66
2022-11-05T05:07:14.491Z,95837.41
2022-11-05T05:09:40.954Z,95828.91
2022-11-05T05:12:08.107Z,95828.13
2022-11-05T05:14:34.618Z,95835.88
2022-11-05T05:17:01.083Z,95826.59
2022-11-05T05:19:27.604Z,95822.72
2022-11-05T05:21:53.993Z,95825.81
2022-11-05T05:24:21.317Z,95824.66
2022-11-05T05:26:51.248Z,95807.28
2022-11-05T05:29:19.972Z,95808.06
2022-11-05T05:31:46.534Z,95811.91
2022-11-05T05:34:13.929Z,95791.84
2022-11-05T05:36:40.349Z,95782.16
2022-11-05T05:39:08.142Z,95792.97
2022-11-05T05:41:34.675Z,95791.81
2022-11-05T05:44:01.185Z,95769.41
2022-11-05T05:46:27.677Z,95779.44
2022-11-05T05:48:54.154Z,95778.69
2022-11-05T05:51:20.682Z,95766.69
2022-11-05T05:53:47.187Z,95770.19
2022-11-05T05:56:15.258Z,95770.19
2022-11-05T05:58:41.929Z,95758.59
2022-11-05T06:01:14.146Z,95761.69
2022-11-05T06:03:43.804Z,95753.56
2022-11-05T06:06:15.923Z,95752.44
2022-11-05T06:08:42.418Z,95748.56
2022-11-05T06:11:09.035Z,95748.94
2022-11-05T06:13:36.230Z,95745.84
2022-11-05T06:16:07.091Z,95741.97
2022-11-05T06:18:34.160Z,95755.88
2022-11-05T06:21:01.133Z,95741.59
2022-11-05T06:23:27.785Z,95727.66
2022-11-05T06:25:54.181Z,95734.66
2022-11-05T06:28:22.643Z,95733.88
2022-11-05T06:30:52.123Z,95719.94
2022-11-05T06:33:18.599Z,95725.38
2022-11-05T06:35:45.120Z,95714.56
2022-11-05T06:38:11.733Z,95708.34
2022-11-05T06:40:38.322Z,95714.53
2022-11-05T06:43:04.868Z,95715.34
2022-11-05T06:45:31.359Z,95705.25
2022-11-05T06:47:58.444Z,95701.41
2022-11-05T06:50:25.935Z,95704.88
2022-11-05T06:52:55.239Z,95705.66
2022-11-05T06:55:21.657Z,95698.31
2022-11-05T06:57:48.192Z,95695.22
2022-11-05T07:00:15.153Z,95700.25
2022-11-05T07:02:41.623Z,95680.91
2022-11-05T07:05:11.338Z,95702.94
2022-11-05T07:07:40.562Z,95694.44
2022-11-05T07:10:08.075Z,95685.16
2022-11-05T07:12:36.590Z,95692.13
2022-11-05T07:15:06.190Z,95697.53
2022-11-05T07:17:34.886Z,95692.13
2022-11-05T07:20:01.353Z,95704.09
2022-11-05T07:22:27.844Z,95705.25
2022-11-05T07:24:54.327Z,95699.09
2022-11-05T07:27:20.819Z,95716.47
2022-11-05T07:29:47.345Z,95713.38
2022-11-05T07:32:15.645Z,95709.88
2022-11-05T07:34:42.127Z,95714.53
2022-11-05T07:37:08.906Z,95715.28
2022-11-05T07:39:35.422Z,95728.47
2022-11-05T07:42:01.903Z,95736.19
2022-11-05T07:44:28.710Z,95722.66
2022-11-05T07:46:55.311Z,95719.56
2022-11-05T07:49:23.825Z,95729.22
2022-11-05T07:51:50.282Z,95726.13
2022-11-05T07:54:16.768Z,95723.03
2022-11-05T07:56:43.375Z,95730.78
2022-11-05T07:59:12.231Z,95728.06
2022-11-05T08:01:39.047Z,95724.56
2022-11-05T08:04:05.606Z,95728.06
2022-11-05T08:06:33.137Z,95736.19
2022-11-05T08:09:00.009Z,95723.03
2022-11-05T08:11:26.478Z,95724.59
2022-11-05T08:13:53.002Z,95722.66
2022-11-05T08:16:22.247Z,95706.78
2022-11-05T08:18:49.678Z,95707.56
2022-11-05T08:21:16.227Z,95716.09
2022-11-05T08:23:43.097Z,95712.22
2022-11-05T08:26:10.034Z,95702.91
2022-11-05T08:28:36.453Z,95709.88
2022-11-05T08:31:03.092Z,95711.81
2022-11-05T08:33:31.447Z,95695.19
2022-11-05T08:36:01.467Z,95709.09
2022-11-05T08:38:27.983Z,95709.09
2022-11-05T08:40:56.436Z,95699.06
2022-11-05T08:43:23.450Z,95704.47
2022-11-05T08:45:50.281Z,95713.00
2022-11-05T08:48:17.969Z,95699.44
2022-11-05T08:50:45.634Z,95710.66
2022-11-05T08:53:12.496Z,95700.97
2022-11-05T08:55:39.276Z,95706.78
2022-11-05T08:58:10.745Z,95715.66
2022-11-05T09:00:37.719Z,95713.00
2022-11-05T09:03:05.326Z,95709.09
2022-11-05T09:05:37.659Z,95718.00
2022-11-05T09:08:09.063Z,95722.63
2022-11-05T09:10:35.775Z,95712.97
2022-11-05T09:13:02.690Z,95722.25
2022-11-05T09:15:29.286Z,95726.09
2022-11-05T09:17:55.809Z,95719.16
2022-11-05T09:20:22.718Z,95725.34
2022-11-05T09:22:49.378Z,95737.31
2022-11-05T09:25:16.082Z,95739.22
2022-11-05T09:27:42.823Z,95748.53
2022-11-05T09:30:09.964Z,95766.31
2022-11-05T09:32:36.527Z,95764.00
2022-11-05T09:35:03.140Z,95762.44
2022-11-05T09:37:29.616Z,95781.00
2022-11-05T09:39:58.530Z,95774.03
2022-11-05T09:42:29.798Z,95792.59
2022-11-05T09:45:04.105Z,95799.56
2022-11-05T09:47:36.414Z,95800.72
2022-11-05T09:50:06.938Z,95804.97
2022-11-05T09:52:33.663Z,95816.56
2022-11-05T09:55:02.550Z,95798.78
2022-11-05T09:57:33.080Z,95808.06
2022-11-05T10:00:02.297Z,95810.38
2022-11-05T10:02:32.452Z,95813.09
2022-11-05T10:05:09.173Z,95821.97
2022-11-05T10:07:42.181Z,95818.13
2022-11-05T10:10:19.005Z,95807.28
2022-11-05T10:12:48.399Z,95809.59
2022-11-05T10:15:37.366Z,95820.44
2022-11-05T10:18:17.590Z,95813.47
2022-11-05T10:20:45.142Z,95817.31
2022-11-05T10:23:14.478Z,95814.25
2022-11-05T10:25:42.830Z,95806.91
2022-11-05T10:28:12.371Z,95827.41
2022-11-05T10:30:39.202Z,95836.66
2022-11-05T10:33:07.105Z,95825.06
2022-11-05T10:35:35.506Z,95830.50
2022-11-05T10:38:02.601Z,95828.94
2022-11-05T10:40:41.290Z,95833.19
2022-11-05T10:43:13.828Z,95842.44
2022-11-05T10:45:47.302Z,95855.59
2022-11-05T10:48:26.629Z,95847.47
2022-11-05T10:50:53.430Z,95860.25
2022-11-05T10:53:41.735Z,95871.06
2022-11-05T10:56:27.037Z,95863.72
2022-11-05T10:58:58.487Z,95879.94
2022-11-05T11:01:25.495Z,95880.72
2022-11-05T11:04:12.660Z,95869.13
2022-11-05T11:06:43.999Z,95882.25
2022-11-05T11:09:21.385Z,95877.63
2022-11-05T11:11:54.236Z,95875.31
2022-11-05T11:14:24.507Z,95883.81
2022-11-05T11:16:53.527Z,95879.94
2022-11-05T11:19:28.026Z,95877.25
2022-11-05T11:22:15.068Z,95889.22
2022-11-05T11:24:43.710Z,95888.84
2022-11-05T11:27:13.343Z,95899.66
2022-11-05T11:29:45.132Z,95903.09
2022-11-05T11:32:17.110Z,95890.00
2022-11-05T11:34:45.121Z,95897.72
2022-11-05T11:37:19.359Z,95898.06
2022-11-05T11:39:51.244Z,95885.38
2022-11-05T11:42:23.242Z,95886.13
2022-11-05T11:44:50.666Z,95886.13
2022-11-05T11:47:19.011Z,95877.25
2022-11-05T11:49:47.852Z,95884.56
2022-11-05T11:52:15.670Z,95877.63
2022-11-05T11:54:42.853Z,95883.81
2022-11-05T11:57:26.397Z,95886.88
2022-11-05T12:00:08.232Z,95869.91
2022-11-05T12:02:47.442Z,95884.56
2022-11-05T12:05:22.565Z,95879.91
2022-11-05T12:08:03.907Z,95874.16
2022-11-05T12:10:48.690Z,95880.69
2022-11-05T12:13:21.189Z,95876.84
2022-11-05T12:15:55.771Z,95877.19
2022-11-05T12:18:22.335Z,95886.47
2022-11-05T12:21:05.688Z,95872.19
2022-11-05T12:23:46.607Z,95876.03
2022-11-05T12:26:32.299Z,95872.97
2022-11-05T12:29:23.852Z,95868.34
2022-11-05T12:31:53.506Z,95866.38
2022-11-05T12:34:20.125Z,95849.78
2022-11-05T12:37:05.186Z,95872.56
2022-11-05T12:39:50.857Z,95854.41
2022-11-05T12:42:29.699Z,95860.59
2022-11-05T12:45:25.653Z,95852.06
2022-11-05T12:47:59.122Z,95831.22
2022-11-05T12:50:28.431Z,95839.31
2022-11-05T12:53:14.451Z,95821.97
2022-11-05T12:55:48.039Z,95815.78
2022-11-05T12:58:28.995Z,95811.91
2022-11-05T13:01:04.275Z,95811.53
2022-11-05T13:03:30.979Z,95813.84
2022-11-05T13:06:05.704Z,95824.63
2022-11-05T13:08:43.054Z,95806.50
2022-11-05T13:11:17.879Z,95815.75
2022-11-05T13:14:03.281Z,95809.56
2022-11-05T13:16:33.845Z,95808.44
2022-11-05T13:19:09.316Z,95814.19
2022-11-05T13:21:37.324Z,95812.66
2022-11-05T13:24:14.722Z,95807.25
2022-11-05T13:26:51.702Z,95806.47
2022-11-05T13:29:21.646Z,95805.31
2022-11-05T13:32:05.264Z,95792.59
2022-11-05T13:34:37.376Z,95801.84
2022-11-05T13:37:24.413Z,95798.00
2022-11-05T13:39:54.362Z,95798.75
2022-11-05T13:42:33.536Z,95804.91
2022-11-05T13:45:21.342Z,95820.41
2022-11-05T13:48:06.161Z,95825.78
2022-11-05T13:50:41.863Z,95833.47
2022-11-05T13:53:08.661Z,95819.25
2022-11-05T13:55:47.801Z,95840.44
2022-11-05T13:58:29.430Z,95845.06
2022-11-05T14:01:11.397Z,95831.22
2022-11-05T14:03:39.015Z,95838.91
2022-11-05T14:06:08.899Z,95840.44
2022-11-05T14:08:43.026Z,95836.63
2022-11-05T14:11:24.281Z,95847.38
2022-11-05T14:13:52.990Z,95846.59
2022-11-05T14:16:20.852Z,95830.03
2022-11-05T14:19:06.832Z,95844.66
2022-11-05T14:21:49.396Z,95839.66
2022-11-05T14:24:21.995Z,95825.00
2022-11-05T14:27:00.585Z,95839.25
2022-11-05T14:29:40.810Z,95831.16
2022-11-05T14:32:27.575Z,95820.75
2022-11-05T14:34:56.710Z,95826.50
2022-11-05T14:37:40.415Z,95819.94
2022-11-05T14:40:22.779Z,95810.34
2022-11-05T14:42:54.571Z,95810.69
2022-11-05T14:45:24.190Z,95801.78
2022-11-05T14:47:55.634Z,95794.88
2022-11-05T14:50:26.054Z,95806.06
2022-11-05T14:52:54.245Z,95791.00
2022-11-05T14:55:32.674Z,95783.28
2022-11-05T14:57:59.480Z,95792.16
2022-11-05T15:00:29.117Z,95782.50
2022-11-05T15:02:56.931Z,95773.25
2022-11-05T15:05:37.093Z,95781.75
2022-11-05T15:08:22.505Z,95759.34
2022-11-05T15:10:51.577Z,95757.00
2022-11-05T15:13:28.834Z,95746.22
2022-11-05T15:15:57.190Z,95738.09
2022-11-05T15:18:41.113Z,95732.31
2022-11-05T15:21:10.863Z,95723.41
2022-11-05T15:23:40.179Z,95710.69
2022-11-05T15:26:07.070Z,95702.19
2022-11-05T15:28:44.968Z,95702.94
2022-11-05T15:31:14.699Z,95678.66
2022-11-05T15:33:42.108Z,95681.34
2022-11-05T15:36:10.675Z,95675.16
2022-11-05T15:38:37.670Z,95659.31
2022-11-05T15:41:04.418Z,95662.41
2022-11-05T15:43:31.309Z,95649.28
2022-11-05T15:46:00.953Z,95635.38
2022-11-05T15:48:27.745Z,95631.13
2022-11-05T15:50:54.531Z,95636.53
2022-11-05T15:53:47.395Z,95619.53
2022-11-05T15:56:32.690Z,95617.22
2022-11-05T15:59:01.568Z,95621.09
2022-11-05T16:01:30.431Z,95615.28
2022-11-05T16:03:59.846Z,95609.88
2022-11-05T16:06:31.030Z,95603.31
2022-11-05T16:08:57.848Z,95597.13
2022-11-05T16:11:26.474Z,95601.00
2022-11-05T16:13:53.967Z,95590.59
2022-11-05T16:16:23.483Z,95576.25
2022-11-05T16:18:50.277Z,95590.97
2022-11-05T16:21:22.933Z,95581.69
2022-11-05T16:23:49.453Z,95560.03
2022-11-05T16:29:29.606Z,95553.84
2022-11-05T16:31:57.485Z,95559.25
2022-11-05T16:34:38.223Z,95550.41
2022-11-05T16:37:06.487Z,95533.75
2022-11-05T16:39:33.569Z,95543.03
2022-11-05T16:42:00.310Z,95541.53
2022-11-05T16:44:27.253Z,95529.13
2022-11-05T16:46:54.310Z,95537.25
2022-11-05T16:49:21.254Z,95538.41
2022-11-05T16:51:48.131Z,95519.84
2022-11-05T16:54:14.979Z,95527.59
2022-11-05T16:56:43.957Z,95518.69
2022-11-05T16:59:13.654Z,95515.22
2022-11-05T17:01:42.052Z,95520.25
2022-11-05T17:04:09.699Z,95516.38
2022-11-05T17:06:38.058Z,95506.72
2022-11-05T17:09:04.995Z,95509.81
2022-11-05T17:11:31.822Z,95502.09
2022-11-05T17:13:58.721Z,95505.56
2022-11-05T17:16:27.043Z,95506.72
2022-11-05T17:18:56.077Z,95499.75
2022-11-05T17:21:22.782Z,95494.72
2022-11-05T17:23:49.667Z,95505.97
2022-11-05T17:26:16.425Z,95495.91
2022-11-05T17:28:43.075Z,95500.53
2022-11-05T17:31:11.687Z,95506.72
2022-11-05T17:33:38.454Z,95497.06
2022-11-05T17:36:05.814Z,95504.41
2022-11-05T17:38:33.103Z,95514.06
2022-11-05T17:40:59.898Z,95500.91
2022-11-05T17:43:26.637Z,95511.34
2022-11-05T17:45:53.444Z,95516.00
2022-11-05T17:48:20.678Z,95505.16
2022-11-05T17:50:48.436Z,95509.81
2022-11-05T17:53:16.657Z,95516.00
2022-11-05T17:55:44.218Z,95503.63
2022-11-05T17:58:11.165Z,95513.28
2022-11-05T18:00:38.417Z,95519.09
2022-11-05T18:03:05.662Z,95512.06
2022-11-05T18:05:35.157Z,95517.53
2022-11-05T18:08:02.452Z,95528.34
2022-11-05T18:10:29.319Z,95513.63
2022-11-05T18:12:56.115Z,95519.84
2022-11-05T18:15:25.116Z,95509.81
2022-11-05T18:17:51.882Z,95501.25
2022-11-05T18:20:19.789Z,95513.66
2022-11-05T18:22:48.775Z,95513.66
2022-11-05T18:25:15.632Z,95502.78
2022-11-05T18:27:42.895Z,95520.63
2022-11-05T18:30:10.427Z,95517.53
2022-11-05T18:32:37.491Z,95512.06
2022-11-05T18:35:04.479Z,95516.75
2022-11-05T18:37:31.441Z,95516.38
2022-11-05T18:39:58.187Z,95512.06
2022-11-05T18:42:25.651Z,95525.25
2022-11-05T18:44:52.483Z,95519.47
2022-11-05T18:47:19.239Z,95517.47
2022-11-05T18:49:46.406Z,95517.91
2022-11-05T18:52:13.581Z,95519.47
2022-11-05T18:54:40.318Z,95507.41
2022-11-05T18:57:07.359Z,95509.81
2022-11-05T18:59:38.237Z,95502.06
2022-11-05T19:02:06.421Z,95495.06
2022-11-05T19:04:35.013Z,95507.03
2022-11-05T19:07:05.142Z,95503.19
2022-11-05T19:09:34.075Z,95486.53
2022-11-05T19:12:01.367Z,95485.78
2022-11-05T19:14:28.414Z,95493.91
2022-11-05T19:16:55.154Z,95479.53
2022-11-05T19:19:21.881Z,95489.63
2022-11-05T19:21:48.642Z,95486.56
2022-11-05T19:24:17.099Z,95478.78
2022-11-05T19:26:44.286Z,95481.91
2022-11-05T19:29:11.129Z,95488.88
2022-11-05T19:31:39.827Z,95474.50
2022-11-05T19:34:06.684Z,95476.47
2022-11-05T19:36:33.750Z,95481.91
2022-11-05T19:39:02.032Z,95471.78
2022-11-05T19:41:28.786Z,95464.09
2022-11-05T19:43:58.671Z,95480.34
2022-11-05T19:46:25.434Z,95467.53
2022-11-05T19:48:54.066Z,95475.69
2022-11-05T19:51:22.384Z,95487.31
2022-11-05T19:53:49.635Z,95479.50
2022-11-05T19:56:17.759Z,95488.81
2022-11-05T19:58:45.062Z,95487.69
2022-11-05T20:01:12.752Z,95472.53
2022-11-05T20:03:40.132Z,95484.94
2022-11-05T20:06:09.229Z,95481.84
2022-11-05T20:08:47.867Z,95470.59
2022-11-05T20:11:22.914Z,95488.44
2022-11-05T20:13:49.713Z,95485.31
2022-11-05T20:16:25.864Z,95478.72
2022-11-05T20:18:52.750Z,95488.41
2022-11-05T20:21:20.307Z,95483.38
2022-11-05T20:23:47.180Z,95486.44
2022-11-05T20:26:14.499Z,95497.31
2022-11-05T20:28:41.474Z,95486.44
2022-11-05T20:31:11.462Z,95489.47
2022-11-05T20:33:38.663Z,95503.47
2022-11-05T20:36:06.737Z,95505.78
2022-11-05T20:38:33.513Z,95501.44
2022-11-05T20:40:59.973Z,95519.69
2022-11-05T20:43:30.491Z,95518.91
2022-11-05T20:45:58.154Z,95522.75
2022-11-05T20:48:26.554Z,95539.41
2022-11-05T20:50:53.029Z,95535.88
2022-11-05T20:53:19.511Z,95553.72
2022-11-05T20:55:47.304Z,95569.19
2022-11-05T20:58:15.269Z,95568.34
2022-11-05T21:00:48.056Z,95586.16
2022-11-05T21:03:14.614Z,95612.47
2022-11-05T21:05:47.082Z,95611.25
2022-11-05T21:08:14.430Z,95642.63
2022-11-05T21:10:41.173Z,95652.66
2022-11-05T21:13:07.883Z,95678.91
2022-11-05T21:15:34.485Z,95721.47
2022-11-05T21:18:01.458Z,95726.06
2022-11-05T21:20:27.933Z,95761.69
2022-11-05T21:22:54.365Z,95788.72
2022-11-05T21:25:20.834Z,95794.13
2022-11-05T21:27:47.327Z,95818.88
2022-11-05T21:30:14.053Z,95839.00
2022-11-05T21:32:40.679Z,95861.41
2022-11-05T21:35:07.349Z,95899.25
2022-11-05T21:37:33.812Z,95903.94
2022-11-05T21:40:00.337Z,95932.91
2022-11-05T21:42:28.619Z,95930.97
2022-11-05T21:45:00.366Z,95941.81
2022-11-05T21:47:28.029Z,95978.91
2022-11-05T21:49:56.971Z,95996.69
2022-11-05T21:52:42.043Z,96017.19
2022-11-05T21:55:29.446Z,96047.28
2022-11-05T21:58:15.021Z,96059.25
2022-11-05T22:00:41.742Z,96082.06
2022-11-05T22:03:10.049Z,96107.88
2022-11-05T22:05:38.101Z,96113.72
2022-11-05T22:08:04.804Z,96124.88
2022-11-05T22:10:31.258Z,96141.47
2022-11-05T22:12:57.685Z,96134.16
2022-11-05T22:15:26.015Z,96139.59
2022-11-05T22:17:52.474Z,96148.81
2022-11-05T22:20:19.008Z,96145.75
2022-11-05T22:22:45.590Z,96166.97
2022-11-05T22:25:16.641Z,96173.44
2022-11-05T22:27:44.136Z,96164.28
2022-11-05T22:30:13.002Z,96178.50
2022-11-05T22:32:39.686Z,96188.13
2022-11-05T22:35:08.645Z,96178.56
2022-11-05T22:37:35.098Z,96196.22
2022-11-05T22:40:04.065Z,96200.47
2022-11-05T22:42:30.612Z,96189.72
2022-11-05T22:44:58.273Z,96195.75
2022-11-05T22:47:24.713Z,96183.34
2022-11-05T22:49:51.171Z,96185.03
2022-11-05T22:52:18.004Z,96191.09
2022-11-05T22:54:44.486Z,96181.44
2022-11-05T22:57:10.921Z,96175.75
2022-11-05T22:59:37.400Z,96191.44
2022-11-05T23:02:09.156Z,96188.69
2022-11-05T23:04:36.450Z,96186.88
2022-11-05T23:07:27.281Z,96201.03
2022-11-05T23:10:13.125Z,96202.53
2022-11-05T23:12:40.032Z,96189.53
2022-11-05T23:15:07.834Z,96199.50
2022-11-05T23:17:55.542Z,96205.63
2022-11-05T23:20:41.390Z,96208.81
2022-11-05T23:23:30.190Z,96224.88
2022-11-05T23:26:00.030Z,96224.16
2022-11-05T23:28:26.654Z,96224.19
2022-11-05T23:31:11.834Z,96243.34
2022-11-05T23:33:38.311Z,96240.72
2022-11-05T23:36:23.208Z,96243.06
2022-11-05T23:38:49.698Z,96247.22
2022-11-05T23:41:37.046Z,96234.56
2022-11-05T23:44:21.865Z,96234.22
2022-11-05T23:47:06.809Z,96240.22
2022-11-05T23:49:33.357Z,96239.53
2022-11-05T23:51:59.853Z,96246.38
2022-11-05T23:54:26.313Z,96259.31
2022-11-05T23:56:52.778Z,96247.03
2022-11-05T23:59:19.227Z,96246.69
